Time;durP1;ratioP1;P1;durP2;ratioP2;P2;SDS_P1;SDS_P2;PMS_P1;PMS_P2;Temp;Humidity;BMP_temperature;BMP_pressure;BME280_temperature;BME280_humidity;BME280_pressure;Samples;Min_cycle;Max_cycle;Signal;HPM_P1;HPM_P2
2023/04/16 00:03:27;;;;;;;8.60;5.10;;;22.20;60.90;;;;;;222353;1254;22598;-44
2023/04/16 00:08:31;;;;;;;7.70;5.30;;;22.10;60.90;;;;;;222017;1262;22516;-48
2023/04/16 00:13:36;;;;;;;6.80;4.60;;;22.10;61.20;;;;;;221811;1256;25337;-48
2023/04/16 00:18:40;;;;;;;6.40;5.20;;;22.10;60.70;;;;;;221947;1263;24265;-44
2023/04/16 00:23:44;;;;;;;5.20;4.50;;;22.10;60.70;;;;;;221882;1266;25262;-46
2023/04/16 00:28:49;;;;;;;8.00;5.30;;;22.10;60.80;;;;;;221882;1264;24215;-43
2023/04/16 00:33:53;;;;;;;6.10;4.80;;;22.00;60.80;;;;;;221774;1247;22632;-45
2023/04/16 00:38:57;;;;;;;6.00;4.60;;;22.00;60.70;;;;;;222067;1266;22525;-44
2023/04/16 00:44:01;;;;;;;7.10;5.40;;;22.00;61.10;;;;;;222189;1256;23020;-45
2023/04/16 00:49:05;;;;;;;8.70;4.60;;;22.00;60.70;;;;;;221779;1263;22508;-45
2023/04/16 00:54:11;;;;;;;6.90;5.20;;;22.00;60.70;;;;;;222088;1263;24202;-45
2023/04/16 00:59:15;;;;;;;7.50;5.10;;;22.00;60.80;;;;;;222034;1247;22508;-45
2023/04/16 01:04:20;;;;;;;6.50;5.20;;;22.00;60.60;;;;;;222043;1263;24108;-44
2023/04/16 01:09:24;;;;;;;5.80;5.20;;;22.00;60.70;;;;;;222104;1265;25330;-44
2023/04/16 01:14:28;;;;;;;8.10;5.20;;;22.10;60.60;;;;;;221915;1264;22632;-44
2023/04/16 01:19:35;;;;;;;8.40;5.70;;;22.00;60.80;;;;;;222172;1263;24075;-48
2023/04/16 01:24:39;;;;;;;7.60;5.50;;;22.00;60.70;;;;;;221998;1259;22500;-45
2023/04/16 01:29:45;;;;;;;7.90;4.90;;;22.00;61.10;;;;;;222106;1263;22515;-46
2023/04/16 01:34:53;;;;;;;4.90;4.50;;;21.90;60.90;;;;;;222004;1259;22530;-45
2023/04/16 01:39:57;;;;;;;5.10;4.50;;;21.90;60.70;;;;;;221850;1261;23929;-47
2023/04/16 01:45:01;;;;;;;4.90;4.20;;;21.90;60.60;;;;;;222059;1266;24233;-46
2023/04/16 01:50:06;;;;;;;5.60;4.50;;;21.90;60.60;;;;;;221896;1256;22512;-44
2023/04/16 01:55:11;;;;;;;5.80;5.20;;;21.90;60.70;;;;;;221784;1268;22629;-45
2023/04/16 02:00:15;;;;;;;8.00;5.20;;;21.80;60.60;;;;;;221956;1263;26656;-45
2023/04/16 02:05:21;;;;;;;7.50;5.00;;;21.80;60.60;;;;;;221672;1263;22755;-48
2023/04/16 02:10:26;;;;;;;6.50;5.10;;;21.80;60.70;;;;;;221948;1264;23882;-45
2023/04/16 02:15:30;;;;;;;7.10;5.40;;;21.80;60.70;;;;;;222210;1263;22511;-45
2023/04/16 02:20:39;;;;;;;9.30;5.20;;;21.80;60.80;;;;;;222335;1260;25449;-43
2023/04/16 02:25:47;;;;;;;7.20;5.10;;;21.80;60.60;;;;;;222173;1264;22722;-43
2023/04/16 02:30:51;;;;;;;5.80;5.20;;;21.70;60.70;;;;;;222239;1266;22511;-49
2023/04/16 02:35:55;;;;;;;6.70;5.50;;;21.70;61.10;;;;;;221894;1264;24072;-44
2023/04/16 02:40:59;;;;;;;4.90;4.50;;;21.70;60.90;;;;;;221724;1257;25459;-44
2023/04/16 02:46:04;;;;;;;5.20;4.60;;;22.10;60.60;;;;;;221990;1266;22586;-47
2023/04/16 02:51:08;;;;;;;6.50;4.80;;;22.40;59.90;;;;;;222012;1255;22628;-45
2023/04/16 02:56:12;;;;;;;5.50;4.70;;;22.60;59.30;;;;;;222070;1254;24039;-46
2023/04/16 03:01:16;;;;;;;5.50;4.90;;;23.00;58.50;;;;;;222044;1264;24319;-45
2023/04/16 03:06:21;;;;;;;5.30;4.60;;;23.10;58.00;;;;;;222113;1267;24075;-44
2023/04/16 03:11:25;;;;;;;6.70;5.10;;;23.20;57.60;;;;;;222185;1263;23896;-44
2023/04/16 03:16:29;;;;;;;5.00;4.50;;;23.30;57.50;;;;;;222411;1255;25303;-47
2023/04/16 03:21:33;;;;;;;5.00;4.50;;;23.20;57.50;;;;;;222397;1263;22601;-50
2023/04/16 03:26:37;;;;;;;5.40;4.50;;;23.20;57.40;;;;;;222138;1263;22510;-50
2023/04/16 03:31:41;;;;;;;7.70;4.80;;;23.10;57.30;;;;;;222274;1264;22564;-48
2023/04/16 03:36:46;;;;;;;6.40;4.50;;;23.10;57.80;;;;;;222057;1263;23915;-48
2023/04/16 03:41:50;;;;;;;6.00;4.80;;;23.20;57.70;;;;;;222164;1268;22580;-51
2023/04/16 03:46:54;;;;;;;6.40;4.40;;;23.30;57.80;;;;;;222064;1260;22524;-49
2023/04/16 03:51:59;;;;;;;6.20;4.90;;;23.30;57.60;;;;;;222088;1266;22525;-48
2023/04/16 03:57:03;;;;;;;5.10;3.90;;;23.40;58.20;;;;;;222454;1263;24240;-54
2023/04/16 04:02:08;;;;;;;5.00;4.60;;;23.30;57.40;;;;;;222253;1263;24203;-48
2023/04/16 04:07:14;;;;;;;4.40;4.00;;;23.30;57.70;;;;;;222179;1264;23520;-52
2023/04/16 04:12:26;;;;;;;6.70;4.80;;;23.20;57.80;;;;;;222216;1263;23533;-51
2023/04/16 04:17:49;;;;;;;6.80;4.60;;;23.30;58.00;;;;;;222389;1264;25255;-50
2023/04/16 04:22:54;;;;;;;5.40;4.30;;;23.20;57.60;;;;;;222615;1254;22975;-48
2023/04/16 04:28:00;;;;;;;5.70;4.70;;;23.00;58.00;;;;;;222262;1256;25249;-47
2023/04/16 04:33:05;;;;;;;5.50;5.00;;;22.90;58.40;;;;;;221514;1267;22537;-49
2023/04/16 04:38:09;;;;;;;5.50;4.10;;;22.90;58.60;;;;;;221352;1261;22607;-50
2023/04/16 04:43:13;;;;;;;5.50;5.00;;;22.80;59.60;;;;;;221347;1264;25268;-52
2023/04/16 04:48:18;;;;;;;5.30;4.80;;;22.80;58.60;;;;;;221385;1270;24294;-49
2023/04/16 04:53:22;;;;;;;6.30;4.60;;;22.70;58.70;;;;;;221548;1269;22518;-49
2023/04/16 04:58:27;;;;;;;5.70;4.80;;;22.70;58.90;;;;;;221727;1266;22598;-49
2023/04/16 05:03:31;;;;;;;5.90;4.40;;;22.60;59.00;;;;;;222120;1264;22558;-49
2023/04/16 05:08:35;;;;;;;5.00;4.50;;;22.50;59.20;;;;;;222247;1248;22506;-48
2023/04/16 05:13:40;;;;;;;5.50;5.00;;;22.50;59.30;;;;;;222530;1254;24355;-47
2023/04/16 05:18:44;;;;;;;5.00;4.40;;;22.40;59.40;;;;;;222351;1260;22552;-51
2023/04/16 05:23:48;;;;;;;6.40;4.80;;;22.40;59.90;;;;;;222142;1266;22514;-48
2023/04/16 05:28:52;;;;;;;5.90;5.00;;;22.40;59.90;;;;;;222238;1254;22683;-48
2023/04/16 05:33:56;;;;;;;5.60;4.40;;;22.30;59.60;;;;;;222313;1264;23128;-46
2023/04/16 05:39:01;;;;;;;6.60;4.60;;;22.30;59.80;;;;;;221973;1254;22785;-52
2023/04/16 05:44:05;;;;;;;4.60;4.20;;;22.30;59.80;;;;;;222382;1264;22512;-51
2023/04/16 05:49:10;;;;;;;5.40;4.70;;;22.20;59.90;;;;;;222319;1254;22522;-51
2023/04/16 05:54:14;;;;;;;4.70;4.30;;;22.10;60.10;;;;;;222350;1264;24220;-50
2023/04/16 05:59:18;;;;;;;5.70;4.90;;;22.10;60.00;;;;;;222249;1253;22604;-48
2023/04/16 06:04:22;;;;;;;5.90;4.90;;;22.10;60.10;;;;;;221889;1264;22508;-54
2023/04/16 06:09:27;;;;;;;7.80;5.10;;;22.10;60.10;;;;;;222322;1263;23882;-53
2023/04/16 06:14:31;;;;;;;4.80;4.30;;;22.10;60.00;;;;;;222175;1261;22820;-51
2023/04/16 06:19:35;;;;;;;4.70;4.20;;;22.10;60.10;;;;;;222157;1266;22976;-49
2023/04/16 06:24:39;;;;;;;5.30;4.80;;;22.10;60.10;;;;;;222289;1264;22527;-47
2023/04/16 06:29:44;;;;;;;4.80;4.40;;;22.10;60.10;;;;;;222112;1264;193519;-48
2023/04/16 06:34:48;;;;;;;5.00;4.50;;;22.10;60.10;;;;;;222130;1258;22521;-51
2023/04/16 06:39:52;;;;;;;4.70;4.30;;;22.10;60.10;;;;;;222360;1266;22511;-48
2023/04/16 06:44:56;;;;;;;5.10;4.70;;;22.10;60.10;;;;;;222327;1263;22609;-50
2023/04/16 06:50:00;;;;;;;5.00;4.40;;;22.20;60.00;;;;;;222214;1269;22702;-52
2023/04/16 06:55:07;;;;;;;4.60;4.20;;;22.10;60.40;;;;;;222278;1254;22642;-50
2023/04/16 07:00:11;;;;;;;5.00;4.50;;;22.20;59.80;;;;;;222533;1264;22517;-49
2023/04/16 07:05:16;;;;;;;6.90;4.10;;;22.20;59.80;;;;;;222582;1264;25354;-51
2023/04/16 07:10:20;;;;;;;5.20;4.40;;;22.10;60.10;;;;;;222334;1256;24189;-51
2023/04/16 07:15:24;;;;;;;5.10;4.50;;;22.00;60.00;;;;;;222190;1264;24107;-51
2023/04/16 07:20:28;;;;;;;5.70;5.10;;;22.10;60.30;;;;;;222413;1261;22866;-51
2023/04/16 07:25:32;;;;;;;8.80;4.80;;;22.10;60.10;;;;;;222301;1266;22612;-52
2023/04/16 07:30:36;;;;;;;5.60;4.70;;;22.10;60.40;;;;;;222378;1261;23145;-51
2023/04/16 07:35:40;;;;;;;6.50;4.90;;;22.00;60.80;;;;;;222303;1257;23893;-48
2023/04/16 07:40:45;;;;;;;9.10;4.70;;;22.10;61.20;;;;;;222120;1263;24334;-52
2023/04/16 07:45:49;;;;;;;9.50;4.70;;;22.20;62.30;;;;;;222263;1265;22618;-48
2023/04/16 07:50:53;;;;;;;6.60;4.70;;;22.20;61.90;;;;;;222303;1266;26666;-52
2023/04/16 07:55:57;;;;;;;10.20;4.90;;;22.20;62.30;;;;;;222224;1254;22608;-49
2023/04/16 08:01:01;;;;;;;8.90;5.40;;;22.20;61.50;;;;;;222224;1266;22528;-52
2023/04/16 08:06:05;;;;;;;7.00;4.80;;;22.20;62.60;;;;;;222730;1266;24212;-51
2023/04/16 08:11:10;;;;;;;6.10;5.30;;;22.20;62.60;;;;;;222690;1266;22603;-50
2023/04/16 08:16:14;;;;;;;13.70;5.70;;;22.20;62.50;;;;;;222230;1263;22647;-51
2023/04/16 08:21:19;;;;;;;8.90;5.60;;;22.30;62.00;;;;;;222638;1266;22621;-51
2023/04/16 08:26:24;;;;;;;9.40;5.60;;;22.40;62.00;;;;;;222460;1260;25210;-53
2023/04/16 08:31:28;;;;;;;15.60;5.60;;;22.40;62.10;;;;;;222471;1253;22635;-49
2023/04/16 08:36:32;;;;;;;11.50;6.20;;;22.40;61.70;;;;;;222558;1263;22514;-49
2023/04/16 08:41:39;;;;;;;10.50;6.90;;;22.50;61.40;;;;;;222366;1266;22543;-47
2023/04/16 08:46:45;;;;;;;8.90;6.30;;;22.50;61.60;;;;;;223170;1263;22522;-48
2023/04/16 08:51:51;;;;;;;14.90;7.00;;;22.50;61.70;;;;;;222509;1253;22532;-49
2023/04/16 08:56:57;;;;;;;13.40;6.70;;;22.70;60.40;;;;;;222536;1266;25464;-51
2023/04/16 09:02:02;;;;;;;10.10;6.00;;;22.80;60.20;;;;;;222709;1263;22644;-53
2023/04/16 09:07:08;;;;;;;9.10;5.80;;;22.80;59.90;;;;;;222883;1253;24893;-47
2023/04/16 09:12:12;;;;;;;11.30;6.10;;;22.70;60.20;;;;;;222459;1263;22641;-48
2023/04/16 09:17:17;;;;;;;8.60;6.20;;;22.70;60.10;;;;;;222966;1263;22713;-59
2023/04/16 09:22:22;;;;;;;11.60;7.20;;;22.50;60.30;;;;;;223571;1256;22515;-53
2023/04/16 09:27:27;;;;;;;11.60;6.80;;;22.50;60.30;;;;;;222542;1262;22630;-52
2023/04/16 09:32:32;;;;;;;11.40;6.20;;;22.60;59.80;;;;;;222663;1253;24345;-49
2023/04/16 09:37:37;;;;;;;8.40;5.80;;;22.70;60.00;;;;;;224663;1269;23001;-45
2023/04/16 09:42:41;;;;;;;10.50;6.10;;;22.70;59.80;;;;;;222651;1266;22511;-56
2023/04/16 09:47:46;;;;;;;13.60;6.50;;;22.70;60.00;;;;;;222451;1263;24187;-52
2023/04/16 09:52:50;;;;;;;10.00;6.30;;;22.70;59.70;;;;;;222337;1266;25330;-52
2023/04/16 09:57:59;;;;;;;15.70;6.80;;;22.70;59.60;;;;;;222062;1263;24165;-54
2023/04/16 10:03:07;;;;;;;10.70;6.10;;;22.70;59.60;;;;;;222529;1263;26199;-54
2023/04/16 10:08:12;;;;;;;10.40;6.00;;;22.70;59.30;;;;;;222200;1246;22533;-47
2023/04/16 10:13:18;;;;;;;7.50;5.60;;;22.90;59.20;;;;;;222414;1261;22531;-48
2023/04/16 10:18:22;;;;;;;9.80;6.50;;;22.80;59.00;;;;;;222337;1263;22649;-44
2023/04/16 10:23:26;;;;;;;11.30;6.90;;;23.00;59.30;;;;;;221817;1267;24216;-43
2023/04/16 10:28:34;;;;;;;11.70;6.60;;;23.10;62.20;;;;;;222356;1266;24298;-43
2023/04/16 10:33:41;;;;;;;8.10;5.70;;;23.40;61.50;;;;;;222136;1269;24336;-44
2023/04/16 10:38:48;;;;;;;9.80;6.20;;;23.30;60.40;;;;;;222216;1267;25949;-50
2023/04/16 10:43:52;;;;;;;10.30;7.10;;;23.20;60.10;;;;;;221896;1269;22524;-56
2023/04/16 10:49:01;;;;;;;10.40;6.60;;;23.30;60.20;;;;;;222619;1263;25210;-57
2023/04/16 10:54:13;;;;;;;9.00;5.80;;;23.30;59.60;;;;;;221673;1269;23889;-57
2023/04/16 10:59:20;;;;;;;9.10;6.00;;;23.30;59.10;;;;;;222191;1263;22524;-55
2023/04/16 11:04:23;;;;;;;12.50;5.70;;;23.30;59.20;;;;;;222042;1266;22634;-60
2023/04/16 11:09:52;;;;;;;9.80;5.70;;;23.30;58.60;;;;;;222394;1267;22524;-58
2023/04/16 11:15:02;;;;;;;10.50;5.90;;;23.20;58.80;;;;;;222368;1266;24223;-60
2023/04/16 11:20:13;;;;;;;8.40;5.70;;;23.30;57.90;;;;;;222540;1266;22647;-59
2023/04/16 11:25:24;;;;;;;8.60;5.60;;;23.30;57.30;;;;;;222418;1256;25061;-55
2023/04/16 11:30:34;;;;;;;9.50;4.90;;;23.40;56.40;;;;;;222430;1248;24218;-55
2023/04/16 11:35:39;;;;;;;11.30;5.20;;;23.30;55.70;;;;;;222218;1263;24193;-49
2023/04/16 11:40:43;;;;;;;6.90;4.70;;;23.20;55.50;;;;;;222442;1262;25596;-53
2023/04/16 11:46:14;;;;;;;6.50;4.30;;;23.30;54.10;;;;;;221986;1263;22515;-51
2023/04/16 11:51:32;;;;;;;8.20;4.30;;;23.50;54.80;;;;;;222402;1262;25457;-58
2023/04/16 11:56:36;;;;;;;10.50;4.60;;;23.40;54.30;;;;;;222277;1263;24343;-59
2023/04/16 12:01:44;;;;;;;6.30;4.00;;;23.50;55.20;;;;;;222511;1259;22537;-57
2023/04/16 12:07:05;;;;;;;6.20;4.00;;;23.70;53.90;;;;;;222161;1262;25086;-56
2023/04/16 12:12:30;;;;;;;9.10;4.40;;;23.60;56.10;;;;;;222361;1257;23243;-56
2023/04/16 12:17:36;;;;;;;5.80;4.00;;;23.60;56.80;;;;;;221120;1273;22520;-54
2023/04/16 12:22:46;;;;;;;9.50;4.70;;;23.80;56.30;;;;;;220247;1281;22587;-49
2023/04/16 12:27:51;;;;;;;10.00;4.40;;;23.70;55.90;;;;;;220266;1273;24201;-53
2023/04/16 12:33:17;;;;;;;9.40;4.40;;;23.60;56.20;;;;;;220065;1264;22548;-50
2023/04/16 12:38:21;;;;;;;8.10;4.30;;;23.70;56.20;;;;;;221155;1261;22848;-47
2023/04/16 12:43:27;;;;;;;12.10;4.20;;;23.70;55.70;;;;;;222398;1246;22558;-48
2023/04/16 12:48:32;;;;;;;11.00;4.60;;;23.70;55.80;;;;;;222536;1253;22647;-46
2023/04/16 12:53:36;;;;;;;6.80;3.90;;;23.70;55.80;;;;;;230277;1265;22163;-48
2023/04/16 12:58:40;;;;;;;9.70;3.90;;;23.80;56.00;;;;;;230079;1268;22289;-48
2023/04/16 13:03:45;;;;;;;10.80;3.90;;;23.90;55.00;;;;;;223853;1253;22906;-47
2023/04/16 13:08:49;;;;;;;9.10;4.80;;;23.90;55.20;;;;;;222360;1263;22522;-46
2023/04/16 13:13:53;;;;;;;6.70;4.90;;;23.80;55.30;;;;;;222273;1256;24236;-48
2023/04/16 13:18:57;;;;;;;7.20;3.60;;;23.70;55.40;;;;;;222192;1253;25318;-49
2023/04/16 13:24:02;;;;;;;6.40;4.40;;;23.70;55.50;;;;;;222155;1263;22512;-48
2023/04/16 13:29:06;;;;;;;4.50;3.60;;;23.70;55.50;;;;;;222420;1257;23229;-53
2023/04/16 13:34:12;;;;;;;3.90;3.50;;;23.60;55.50;;;;;;222258;1251;22508;-46
2023/04/16 13:39:17;;;;;;;5.00;4.00;;;23.60;55.50;;;;;;222558;1265;22511;-50
2023/04/16 13:44:22;;;;;;;3.50;3.20;;;23.60;55.50;;;;;;222424;1256;25271;-48
2023/04/16 13:49:27;;;;;;;10.10;3.80;;;23.50;55.50;;;;;;222541;1254;22508;-49
2023/04/16 13:54:32;;;;;;;3.20;2.90;;;23.50;55.50;;;;;;222277;1263;23725;-47
2023/04/16 13:59:37;;;;;;;6.20;3.90;;;23.50;55.50;;;;;;222249;1256;22519;-47
2023/04/16 14:04:42;;;;;;;7.50;3.70;;;23.50;55.50;;;;;;222202;1261;25495;-49
2023/04/16 14:09:47;;;;;;;5.90;3.20;;;23.50;55.50;;;;;;222179;1263;22602;-47
2023/04/16 14:14:51;;;;;;;6.30;4.20;;;23.40;56.10;;;;;;222406;1256;22519;-45
2023/04/16 14:19:55;;;;;;;4.10;3.30;;;23.50;55.90;;;;;;222064;1259;22550;-47
2023/04/16 14:24:59;;;;;;;3.50;3.20;;;23.50;55.40;;;;;;222222;1263;24231;-49
2023/04/16 14:30:05;;;;;;;5.70;3.80;;;23.40;55.30;;;;;;222213;1254;24096;-49
2023/04/16 14:35:11;;;;;;;4.20;3.60;;;23.40;55.50;;;;;;222230;1254;23017;-46
2023/04/16 14:40:15;;;;;;;4.00;3.60;;;23.40;55.20;;;;;;222097;1263;24337;-48
2023/04/16 14:45:22;;;;;;;3.40;3.10;;;23.40;55.90;;;;;;222017;1266;24164;-47
2023/04/16 14:50:28;;;;;;;3.90;3.60;;;23.40;55.60;;;;;;221970;1254;24246;-50
2023/04/16 14:55:33;;;;;;;3.40;3.00;;;23.30;55.30;;;;;;221986;1257;22663;-50
2023/04/16 15:00:38;;;;;;;4.60;3.30;;;23.30;55.40;;;;;;222148;1254;22979;-47
2023/04/16 15:05:43;;;;;;;3.40;3.10;;;23.30;55.80;;;;;;222162;1266;24522;-50
2023/04/16 15:10:50;;;;;;;3.60;3.20;;;23.30;55.30;;;;;;221978;1254;22509;-47
2023/04/16 15:15:55;;;;;;;3.30;3.10;;;23.30;55.50;;;;;;222165;1266;22507;-47
2023/04/16 15:20:59;;;;;;;3.90;3.00;;;23.30;55.50;;;;;;222337;1264;24167;-45
2023/04/16 15:26:05;;;;;;;4.10;3.60;;;23.30;55.00;;;;;;222361;1263;22533;-49
2023/04/16 15:31:10;;;;;;;3.40;2.90;;;23.20;55.30;;;;;;222331;1263;22637;-47
2023/04/16 15:36:21;;;;;;;3.80;2.90;;;23.20;55.20;;;;;;222160;1256;24212;-47
2023/04/16 15:41:29;;;;;;;3.40;3.10;;;23.20;55.00;;;;;;222351;1265;22513;-45
2023/04/16 15:46:34;;;;;;;3.40;3.10;;;23.20;55.50;;;;;;222285;1253;22589;-46
2023/04/16 15:51:41;;;;;;;3.60;3.30;;;23.20;55.20;;;;;;222192;1248;23914;-47
2023/04/16 15:56:46;;;;;;;3.50;3.20;;;23.20;55.00;;;;;;222442;1263;22608;-48
2023/04/16 16:01:52;;;;;;;3.10;2.90;;;23.20;54.90;;;;;;222357;1261;22633;-48
2023/04/16 16:06:58;;;;;;;2.70;2.50;;;23.10;55.00;;;;;;221963;1254;24414;-50
2023/04/16 16:12:07;;;;;;;3.30;3.00;;;23.10;55.10;;;;;;222141;1260;22749;-46
2023/04/16 16:17:13;;;;;;;3.50;3.20;;;23.10;55.10;;;;;;222162;1263;22637;-47
2023/04/16 16:22:22;;;;;;;4.00;2.60;;;23.10;55.10;;;;;;222300;1257;25478;-47
2023/04/16 16:27:28;;;;;;;3.30;2.80;;;23.10;55.00;;;;;;222138;1261;22527;-48
2023/04/16 16:32:32;;;;;;;3.00;2.70;;;23.00;55.00;;;;;;222234;1266;24094;-48
2023/04/16 16:37:38;;;;;;;3.40;3.10;;;23.00;54.80;;;;;;222286;1265;23738;-49
2023/04/16 16:42:43;;;;;;;3.50;3.20;;;23.00;55.00;;;;;;222234;1263;24036;-48
2023/04/16 16:47:49;;;;;;;2.60;2.40;;;23.00;55.00;;;;;;222215;1260;22518;-49
2023/04/16 16:52:58;;;;;;;3.10;2.80;;;22.90;54.70;;;;;;222415;1263;22632;-47
2023/04/16 16:58:02;;;;;;;3.20;2.80;;;23.00;54.80;;;;;;222341;1263;22622;-49
2023/04/16 17:03:08;;;;;;;3.00;2.80;;;22.90;54.60;;;;;;222254;1264;25341;-47
2023/04/16 17:08:14;;;;;;;2.90;2.70;;;22.90;54.70;;;;;;222234;1265;23879;-46
2023/04/16 17:13:20;;;;;;;3.50;3.20;;;22.90;54.80;;;;;;222396;1265;22514;-51
2023/04/16 17:18:26;;;;;;;3.10;2.80;;;22.80;54.70;;;;;;222319;1263;22513;-47
2023/04/16 17:23:33;;;;;;;2.60;2.40;;;22.90;55.00;;;;;;222169;1266;22911;-51
2023/04/16 17:28:41;;;;;;;3.00;2.70;;;22.80;54.80;;;;;;222275;1247;22517;-48
2023/04/16 17:33:46;;;;;;;3.10;2.90;;;22.80;54.70;;;;;;222095;1254;22653;-48
2023/04/16 17:38:52;;;;;;;3.10;2.60;;;22.80;54.60;;;;;;222207;1266;22624;-46
2023/04/16 17:44:00;;;;;;;4.10;3.00;;;22.80;54.70;;;;;;222281;1257;22517;-47
2023/04/16 17:49:06;;;;;;;4.40;3.90;;;22.80;54.50;;;;;;222132;1254;25323;-46
2023/04/16 17:54:11;;;;;;;3.00;2.80;;;22.70;54.60;;;;;;222353;1264;22507;-50
2023/04/16 17:59:17;;;;;;;3.50;3.20;;;22.70;54.60;;;;;;222169;1261;25287;-49
2023/04/16 18:04:25;;;;;;;3.40;3.10;;;22.70;54.60;;;;;;222417;1254;22508;-48
2023/04/16 18:09:33;;;;;;;3.20;3.00;;;22.70;54.60;;;;;;222473;1264;24308;-52
2023/04/16 18:14:43;;;;;;;5.70;2.60;;;22.70;54.70;;;;;;222544;1263;22503;-49
2023/04/16 18:19:50;;;;;;;3.70;3.00;;;22.70;55.00;;;;;;222345;1263;22633;-45
2023/04/16 18:24:57;;;;;;;10.60;2.70;;;22.80;54.80;;;;;;221965;1259;202070;-47
2023/04/16 18:30:04;;;;;;;7.70;3.90;;;22.80;54.80;;;;;;222645;1253;22638;-46
2023/04/16 18:35:09;;;;;;;6.40;2.50;;;22.90;54.90;;;;;;222304;1263;25457;-47
2023/04/16 18:40:21;;;;;;;3.50;2.70;;;22.90;54.80;;;;;;222005;1260;22605;-47
2023/04/16 18:45:33;;;;;;;4.40;3.10;;;23.00;54.50;;;;;;222413;1265;22524;-48
2023/04/16 18:50:38;;;;;;;11.50;2.90;;;22.90;55.40;;;;;;222315;1264;22996;-50
2023/04/16 18:55:46;;;;;;;2.90;2.70;;;22.90;55.20;;;;;;222233;1266;24364;-48
2023/04/16 19:00:57;;;;;;;4.00;2.60;;;22.90;54.90;;;;;;222276;1262;25211;-46
2023/04/16 19:06:10;;;;;;;2.90;2.40;;;22.90;55.10;;;;;;222265;1254;24214;-47
2023/04/16 19:11:16;;;;;;;4.70;3.10;;;22.80;55.20;;;;;;222221;1263;22510;-46
2023/04/16 19:16:23;;;;;;;3.80;2.80;;;22.80;55.60;;;;;;222084;1266;22629;-50
2023/04/16 19:21:32;;;;;;;4.10;3.10;;;22.80;55.30;;;;;;222134;1257;24232;-46
2023/04/16 19:26:37;;;;;;;11.30;3.30;;;22.80;56.20;;;;;;222173;1264;22586;-54
2023/04/16 19:31:45;;;;;;;6.60;3.40;;;22.90;57.90;;;;;;222186;1266;22946;-51
2023/04/16 19:36:52;;;;;;;9.10;3.50;;;22.90;58.30;;;;;;221913;1256;26634;-48
2023/04/16 19:42:00;;;;;;;9.90;3.70;;;22.80;58.30;;;;;;222398;1256;23402;-45
2023/04/16 19:47:10;;;;;;;8.50;3.90;;;22.80;57.90;;;;;;222228;1257;22525;-47
2023/04/16 19:52:16;;;;;;;12.00;3.60;;;22.70;58.30;;;;;;221968;1256;23942;-49
2023/04/16 19:57:24;;;;;;;13.30;3.80;;;22.80;58.30;;;;;;222325;1257;22693;-47
2023/04/16 20:02:28;;;;;;;7.20;4.20;;;22.70;57.90;;;;;;222363;1263;23017;-46
2023/04/16 20:07:35;;;;;;;8.30;4.30;;;22.70;57.60;;;;;;222007;1263;24448;-46
2023/04/16 20:12:41;;;;;;;7.70;4.10;;;22.70;60.00;;;;;;222337;1263;22616;-46
2023/04/16 20:17:45;;;;;;;8.20;4.30;;;22.90;62.90;;;;;;222135;1263;24083;-45
2023/04/16 20:22:51;;;;;;;8.40;4.20;;;22.90;63.10;;;;;;222184;1267;25317;-46
2023/04/16 20:27:57;;;;;;;6.60;3.90;;;22.90;62.70;;;;;;221779;1263;24209;-48
2023/04/16 20:33:05;;;;;;;9.90;4.10;;;22.80;61.90;;;;;;223222;1256;24375;-50
2023/04/16 20:38:10;;;;;;;6.70;3.90;;;22.80;61.80;;;;;;222136;1256;22788;-49
2023/04/16 20:43:17;;;;;;;5.70;3.60;;;22.80;61.80;;;;;;221350;1263;24229;-47
2023/04/16 20:48:23;;;;;;;7.40;4.00;;;22.80;61.60;;;;;;221276;1267;24411;-46
2023/04/16 20:53:30;;;;;;;6.00;3.90;;;22.80;61.50;;;;;;221173;1268;23830;-45
2023/04/16 20:58:35;;;;;;;6.30;4.40;;;22.80;61.50;;;;;;221283;1262;25387;-49
2023/04/16 21:03:39;;;;;;;6.20;3.70;;;22.70;61.70;;;;;;221202;1271;22686;-45
2023/04/16 21:08:44;;;;;;;5.20;3.50;;;22.80;61.40;;;;;;222057;1264;22514;-48
2023/04/16 21:13:48;;;;;;;6.90;3.70;;;22.70;61.40;;;;;;222277;1264;24179;-50
2023/04/16 21:18:52;;;;;;;5.40;4.00;;;22.80;61.10;;;;;;222021;1249;22494;-50
2023/04/16 21:23:56;;;;;;;6.70;4.20;;;22.70;61.20;;;;;;222112;1254;22514;-46
2023/04/16 21:29:00;;;;;;;4.90;3.40;;;22.60;61.00;;;;;;222180;1264;23879;-47
2023/04/16 21:34:04;;;;;;;5.50;4.00;;;22.60;61.20;;;;;;222039;1267;24057;-46
2023/04/16 21:39:09;;;;;;;6.90;3.60;;;22.50;61.40;;;;;;222091;1263;22511;-52
2023/04/16 21:44:14;;;;;;;8.30;4.00;;;22.50;61.90;;;;;;222233;1253;22514;-52
2023/04/16 21:49:18;;;;;;;3.90;3.40;;;22.50;61.50;;;;;;222297;1263;22526;-46
2023/04/16 21:54:22;;;;;;;4.50;3.70;;;22.50;61.50;;;;;;222345;1248;25395;-52
2023/04/16 21:59:26;;;;;;;5.60;3.70;;;22.40;61.90;;;;;;222280;1257;22772;-45
2023/04/16 22:04:37;;;;;;;3.90;3.60;;;22.50;61.50;;;;;;222109;1257;22507;-52
2023/04/16 22:09:41;;;;;;;5.80;3.60;;;22.50;61.50;;;;;;222044;1250;24223;-46
2023/04/16 22:14:45;;;;;;;8.30;4.00;;;22.50;61.10;;;;;;222188;1265;24196;-53
2023/04/16 22:20:10;;;;;;;5.00;3.80;;;22.50;60.90;;;;;;222161;1263;22515;-48
2023/04/16 22:25:14;;;;;;;5.40;3.60;;;22.50;60.70;;;;;;222259;1263;24209;-51
2023/04/16 22:30:18;;;;;;;6.20;3.40;;;22.50;60.60;;;;;;222118;1265;25172;-48
2023/04/16 22:35:22;;;;;;;6.40;4.00;;;22.50;61.10;;;;;;221843;1263;22562;-47
2023/04/16 22:40:26;;;;;;;4.40;3.90;;;22.40;61.10;;;;;;221945;1263;24334;-46
2023/04/16 22:45:30;;;;;;;4.10;3.20;;;22.50;60.60;;;;;;223816;1264;22514;-47
2023/04/16 22:50:34;;;;;;;3.60;3.30;;;22.50;60.50;;;;;;222395;1256;24339;-47
2023/04/16 22:55:39;;;;;;;3.60;3.30;;;22.40;60.50;;;;;;222094;1263;23160;-47
2023/04/16 23:00:43;;;;;;;4.60;3.40;;;22.40;60.50;;;;;;222135;1264;23181;-51
2023/04/16 23:05:48;;;;;;;3.90;3.60;;;22.40;60.50;;;;;;222018;1263;22534;-48
2023/04/16 23:10:53;;;;;;;5.00;3.80;;;22.40;60.30;;;;;;222243;1264;22520;-50
2023/04/16 23:15:57;;;;;;;5.00;4.00;;;22.30;60.80;;;;;;222488;1260;25482;-47
2023/04/16 23:21:01;;;;;;;7.00;3.30;;;22.30;60.40;;;;;;222302;1257;22511;-47
2023/04/16 23:26:05;;;;;;;3.90;3.50;;;22.30;60.00;;;;;;222427;1247;22632;-47
2023/04/16 23:31:09;;;;;;;4.50;3.60;;;22.30;60.30;;;;;;222292;1263;24195;-46
2023/04/16 23:36:14;;;;;;;3.60;3.30;;;22.20;60.30;;;;;;222205;1254;24199;-51
2023/04/16 23:41:18;;;;;;;3.80;3.30;;;22.20;60.40;;;;;;222236;1263;22517;-47
2023/04/16 23:46:22;;;;;;;4.70;3.50;;;22.20;60.80;;;;;;222356;1254;24254;-48
2023/04/16 23:51:26;;;;;;;4.20;3.60;;;22.20;60.40;;;;;;222361;1254;24348;-47
2023/04/16 23:56:30;;;;;;;4.00;3.40;;;22.20;60.40;;;;;;222463;1257;23932;-45
